Time;durP1;ratioP1;P1;durP2;ratioP2;P2;SDS_P1;SDS_P2;PMS_P1;PMS_P2;Temp;Humidity;BMP_temperature;BMP_pressure;BME280_temperature;BME280_humidity;BME280_pressure;Samples;Min_cycle;Max_cycle;Signal;HPM_P1;HPM_P2
2021/05/01 00:00:44;;;;;;;30.60;22.37;;;;;;;6.01;100.00;152905.88;5035126;28;20490;-75
2021/05/01 00:03:19;;;;;;;30.43;21.10;;;;;;;5.99;100.00;152899.44;5035425;28;20487;-74
2021/05/01 00:05:55;;;;;;;29.70;22.60;;;;;;;5.97;100.00;152895.59;5035072;28;20448;-74
2021/05/01 00:08:30;;;;;;;29.80;23.47;;;;;;;5.96;100.00;152891.69;5034719;28;20481;-74
2021/05/01 00:11:06;;;;;;;30.10;21.37;;;;;;;5.97;100.00;152895.59;5053436;28;20833;-75
2021/05/01 00:13:41;;;;;;;30.17;23.13;;;;;;;6.01;100.00;152904.66;5020114;28;20519;-75
2021/05/01 00:16:16;;;;;;;32.77;23.53;;;;;;;6.04;100.00;152913.63;5027765;28;20970;-74
2021/05/01 00:18:52;;;;;;;31.60;22.93;;;;;;;6.03;100.00;152911.09;5027409;28;20550;-75
2021/05/01 00:21:28;;;;;;;29.30;22.77;;;;;;;6.05;100.00;152916.25;5034883;28;20452;-75
2021/05/01 00:24:04;;;;;;;30.20;23.80;;;;;;;6.07;100.00;152921.38;5052356;28;20531;-74
2021/05/01 00:26:41;;;;;;;34.07;24.43;;;;;;;6.07;100.00;152921.38;5034905;28;20826;-75
2021/05/01 00:29:16;;;;;;;30.80;22.53;;;;;;;6.04;100.00;152913.63;5018806;28;20473;-76
2021/05/01 00:31:51;;;;;;;26.67;20.73;;;;;;;6.05;100.00;152916.25;5052772;28;20462;-75
2021/05/01 00:34:26;;;;;;;31.13;21.40;;;;;;;6.05;100.00;152914.94;5034370;28;20448;-75
2021/05/01 00:37:02;;;;;;;35.20;23.00;;;;;;;6.02;100.00;152908.50;5023465;28;20984;-76
2021/05/01 00:39:37;;;;;;;29.40;21.37;;;;;;;6.04;100.00;152913.63;5034731;28;20453;-76
2021/05/01 00:42:12;;;;;;;29.90;21.60;;;;;;;6.02;100.00;152907.19;5052926;28;20430;-75
2021/05/01 00:44:47;;;;;;;30.20;22.30;;;;;;;6.03;100.00;152911.09;5034817;28;20460;-76
2021/05/01 00:47:23;;;;;;;34.37;24.60;;;;;;;6.02;100.00;152907.19;5019501;28;20542;-75
2021/05/01 00:49:58;;;;;;;30.13;21.80;;;;;;;6.03;100.00;152911.09;5052588;28;20932;-74
2021/05/01 00:52:34;;;;;;;28.87;20.60;;;;;;;6.05;100.00;152914.94;5053684;28;20783;-75
2021/05/01 00:55:10;;;;;;;26.77;21.67;;;;;;;6.05;100.00;152916.25;5036523;28;20454;-74
2021/05/01 00:57:45;;;;;;;31.83;22.10;;;;;;;6.05;100.00;152916.25;5031713;28;20465;-75
2021/05/01 01:00:48;;;;;;;30.80;22.80;;;;;;;6.07;100.00;152920.09;5046626;28;20436;-74
2021/05/01 01:03:23;;;;;;;26.87;20.60;;;;;;;6.05;100.00;152916.25;5033913;28;20457;-74
2021/05/01 01:05:59;;;;;;;30.07;21.90;;;;;;;6.05;100.00;152914.94;5018923;28;20452;-74
2021/05/01 01:08:35;;;;;;;30.13;23.93;;;;;;;6.03;100.00;152911.09;5019651;28;20484;-75
2021/05/01 01:11:10;;;;;;;31.87;22.60;;;;;;;6.08;100.00;152922.69;5032474;28;20415;-75
2021/05/01 01:13:45;;;;;;;33.17;23.97;;;;;;;6.08;100.00;152923.97;5049291;28;20460;-74
2021/05/01 01:16:21;;;;;;;34.03;23.50;;;;;;;6.09;100.00;152925.22;5034667;28;20445;-75
2021/05/01 01:18:56;;;;;;;29.33;22.17;;;;;;;6.11;100.00;152931.72;5052441;28;20444;-75
2021/05/01 01:21:31;;;;;;;30.53;22.60;;;;;;;6.11;100.00;152931.72;5034683;28;20432;-74
2021/05/01 01:24:08;;;;;;;30.10;20.73;;;;;;;6.12;100.00;152932.97;5035323;28;21002;-75
2021/05/01 01:26:43;;;;;;;32.20;23.43;;;;;;;6.12;100.00;152934.28;5030815;28;20442;-75
2021/05/01 01:29:18;;;;;;;35.30;24.50;;;;;;;6.10;100.00;152927.84;5019909;28;20476;-75
2021/05/01 01:31:53;;;;;;;30.10;21.73;;;;;;;6.12;100.00;152934.28;5051744;28;20476;-75
2021/05/01 01:34:28;;;;;;;30.40;22.87;;;;;;;6.14;100.00;152939.44;5052686;28;20783;-74
2021/05/01 01:37:03;;;;;;;32.40;21.87;;;;;;;6.16;100.00;152942.03;5034670;28;20453;-75
2021/05/01 01:39:39;;;;;;;30.43;22.27;;;;;;;6.16;100.00;152942.03;5034315;28;20946;-75
2021/05/01 01:42:15;;;;;;;34.67;22.67;;;;;;;6.18;100.00;152947.19;5036587;28;20441;-74
2021/05/01 01:44:50;;;;;;;28.63;20.80;;;;;;;6.20;100.00;152952.31;5038493;28;20435;-74
2021/05/01 01:47:25;;;;;;;31.60;22.13;;;;;;;6.21;100.00;152954.94;5037157;28;20443;-75
2021/05/01 01:50:00;;;;;;;30.30;22.20;;;;;;;6.20;100.00;152953.63;5037576;28;20442;-75
2021/05/01 01:52:37;;;;;;;35.17;22.83;;;;;;;6.21;100.00;152956.22;5055048;28;20528;-75
2021/05/01 01:55:16;;;;;;;32.97;23.53;;;;;;;6.22;100.00;152957.53;5055867;28;20426;-75
2021/05/01 01:57:52;;;;;;;35.23;25.73;;;;;;;6.21;100.00;152956.22;5022341;28;20458;-75
2021/05/01 02:00:29;;;;;;;33.40;23.07;;;;;;;6.23;100.00;152961.38;5055392;28;20797;-75
2021/05/01 02:03:05;;;;;;;35.27;22.90;;;;;;;6.23;100.00;152960.06;5021690;28;20446;-75
2021/05/01 02:05:41;;;;;;;32.33;23.97;;;;;;;6.24;100.00;152962.66;5011216;28;20487;-74
2021/05/01 02:08:16;;;;;;;31.30;22.93;;;;;;;6.24;100.00;152962.66;5013663;28;20956;-74
2021/05/01 02:10:52;;;;;;;32.13;23.93;;;;;;;6.21;100.00;152954.94;5036988;28;20454;-74
2021/05/01 02:13:27;;;;;;;32.00;24.00;;;;;;;6.23;100.00;152961.38;5055653;28;20469;-75
2021/05/01 02:16:03;;;;;;;30.53;21.60;;;;;;;6.20;100.00;152953.63;5037304;28;20433;-75
2021/05/01 02:18:38;;;;;;;30.80;22.93;;;;;;;6.22;100.00;152958.81;5037018;28;20429;-75
2021/05/01 02:21:13;;;;;;;34.10;22.97;;;;;;;6.22;100.00;152957.53;5051056;28;20446;-74
2021/05/01 02:23:48;;;;;;;32.43;23.23;;;;;;;6.21;100.00;152954.94;5034076;28;20457;-75
2021/05/01 02:26:24;;;;;;;30.30;22.13;;;;;;;6.22;100.00;152957.53;5035196;28;20813;-74
2021/05/01 02:28:59;;;;;;;29.57;20.30;;;;;;;6.24;100.00;152962.66;5002534;28;20480;-75
2021/05/01 02:31:34;;;;;;;33.70;22.77;;;;;;;6.23;100.00;152960.06;5028711;28;20486;-75
2021/05/01 02:34:09;;;;;;;32.80;22.77;;;;;;;6.22;100.00;152957.53;5033786;28;20572;-75
2021/05/01 02:36:44;;;;;;;31.77;22.33;;;;;;;6.23;100.00;152961.38;5034909;28;20429;-75
2021/05/01 02:39:19;;;;;;;32.07;23.20;;;;;;;6.26;100.00;152967.81;5034525;28;20809;-74
2021/05/01 02:41:55;;;;;;;31.93;24.00;;;;;;;6.27;100.00;152970.41;5024096;28;20537;-75
2021/05/01 02:44:30;;;;;;;33.03;22.57;;;;;;;6.25;100.00;152965.28;5013917;28;20455;-74
2021/05/01 02:47:05;;;;;;;29.90;22.33;;;;;;;6.25;100.00;152966.53;5019334;28;20462;-74
2021/05/01 02:49:41;;;;;;;30.27;22.20;;;;;;;6.28;100.00;152972.97;5033280;28;20506;-75
2021/05/01 02:52:16;;;;;;;34.73;23.40;;;;;;;6.21;100.00;152954.94;5032615;28;20488;-74
2021/05/01 02:54:52;;;;;;;33.43;23.80;;;;;;;6.17;100.00;152944.63;5034501;28;20531;-74
2021/05/01 02:57:27;;;;;;;31.60;22.23;;;;;;;6.19;100.00;152949.78;5032786;28;20451;-74
2021/05/01 03:00:05;;;;;;;32.60;23.60;;;;;;;6.19;100.00;152949.78;5031750;28;20957;-74
2021/05/01 03:02:40;;;;;;;36.37;24.70;;;;;;;6.19;100.00;152951.06;5014637;28;20442;-75
2021/05/01 03:05:16;;;;;;;38.33;25.83;;;;;;;6.19;100.00;152951.06;5026653;28;20473;-74
2021/05/01 03:07:51;;;;;;;36.23;26.47;;;;;;;6.16;100.00;152942.03;5032360;28;20883;-74
2021/05/01 03:10:27;;;;;;;33.27;23.20;;;;;;;6.17;100.00;152944.63;5034341;28;20765;-75
2021/05/01 03:13:03;;;;;;;33.90;25.50;;;;;;;6.20;100.00;152953.63;5034283;28;20456;-74
2021/05/01 03:15:38;;;;;;;33.30;24.40;;;;;;;6.19;100.00;152949.78;5018037;28;20442;-74
2021/05/01 03:18:13;;;;;;;37.00;24.53;;;;;;;6.16;100.00;152942.03;5032339;28;20446;-74
2021/05/01 03:20:50;;;;;;;33.23;24.17;;;;;;;6.11;100.00;152931.72;5017772;28;21005;-74
2021/05/01 03:23:27;;;;;;;37.90;25.03;;;;;;;6.17;100.00;152944.63;5032509;28;20795;-75
2021/05/01 03:26:02;;;;;;;37.70;26.07;;;;;;;6.14;100.00;152939.44;5031727;28;20442;-74
2021/05/01 03:28:38;;;;;;;32.00;23.90;;;;;;;6.14;100.00;152938.19;5032886;28;20461;-74
2021/05/01 03:31:13;;;;;;;32.53;23.60;;;;;;;6.17;100.00;152944.63;5032553;28;20481;-74
2021/05/01 03:33:48;;;;;;;33.83;23.93;;;;;;;6.17;100.00;152944.63;5032683;28;20455;-74
2021/05/01 03:36:23;;;;;;;36.63;24.90;;;;;;;6.11;100.00;152931.72;5032192;28;20533;-74
2021/05/01 03:38:58;;;;;;;35.40;23.97;;;;;;;6.01;100.00;152905.88;5026838;28;20454;-75
2021/05/01 03:41:34;;;;;;;38.40;27.03;;;;;;;6.04;100.00;152913.63;5033847;28;20427;-75
2021/05/01 03:44:09;;;;;;;34.00;26.33;;;;;;;6.10;100.00;152927.84;5032278;28;20465;-74
2021/05/01 03:46:44;;;;;;;36.37;26.63;;;;;;;6.14;100.00;152938.19;5032823;28;20435;-74
2021/05/01 03:49:19;;;;;;;40.37;27.03;;;;;;;6.12;100.00;152934.28;5032398;28;20472;-74
2021/05/01 03:51:55;;;;;;;38.60;27.87;;;;;;;6.14;100.00;152938.19;5032748;28;20523;-74
2021/05/01 03:54:30;;;;;;;41.00;28.53;;;;;;;6.13;100.00;152936.88;5033811;28;20452;-74
2021/05/01 03:57:07;;;;;;;37.50;25.17;;;;;;;6.11;100.00;152931.72;5031998;28;20449;-74
2021/05/01 03:59:43;;;;;;;36.73;25.30;;;;;;;6.13;100.00;152936.88;5029799;28;20448;-75
2021/05/01 04:02:18;;;;;;;38.67;27.93;;;;;;;6.13;100.00;152936.88;5018887;28;20444;-74
2021/05/01 04:04:53;;;;;;;36.27;27.33;;;;;;;6.13;100.00;152936.88;5031306;28;20449;-75
2021/05/01 04:07:29;;;;;;;40.00;27.13;;;;;;;6.20;100.00;152952.31;5031951;28;20449;-74
2021/05/01 04:10:05;;;;;;;33.80;25.67;;;;;;;6.16;100.00;152942.03;5031778;28;20978;-74
2021/05/01 04:12:40;;;;;;;34.57;25.20;;;;;;;6.11;100.00;152931.72;5032966;28;20434;-74
2021/05/01 04:15:16;;;;;;;33.07;25.23;;;;;;;6.08;100.00;152922.69;5027158;28;20458;-75
2021/05/01 04:17:53;;;;;;;36.47;27.70;;;;;;;6.07;100.00;152921.38;5011790;28;20633;-74
2021/05/01 04:20:27;;;;;;;38.33;28.63;;;;;;;6.07;100.00;152921.38;5028369;28;20425;-75
2021/05/01 04:23:03;;;;;;;34.33;27.30;;;;;;;6.10;100.00;152927.84;5031063;28;20462;-75
2021/05/01 04:25:38;;;;;;;34.27;25.87;;;;;;;6.11;100.00;152931.72;5031742;28;20835;-74
2021/05/01 04:28:13;;;;;;;37.83;28.17;;;;;;;6.11;100.00;152931.72;5031799;28;20474;-74
2021/05/01 04:30:49;;;;;;;37.90;27.37;;;;;;;6.12;100.00;152934.28;5039531;28;20475;-74
2021/05/01 04:33:25;;;;;;;37.37;24.00;;;;;;;6.17;100.00;152944.63;5034628;28;20465;-75
2021/05/01 04:36:00;;;;;;;38.33;27.90;;;;;;;6.13;100.00;152935.59;5019617;28;20453;-75
2021/05/01 04:38:35;;;;;;;40.23;27.13;;;;;;;6.14;100.00;152939.44;5015345;28;20449;-75
2021/05/01 04:41:11;;;;;;;39.13;25.73;;;;;;;6.12;100.00;152932.97;5017577;28;20457;-75
2021/05/01 04:43:46;;;;;;;38.43;26.70;;;;;;;6.14;100.00;152939.44;5034455;28;20917;-75
2021/05/01 04:46:22;;;;;;;40.07;27.30;;;;;;;6.21;100.00;152954.94;5028827;28;20964;-74
2021/05/01 04:48:57;;;;;;;32.93;24.00;;;;;;;6.22;100.00;152957.53;5032029;28;20480;-74
2021/05/01 04:51:33;;;;;;;38.77;27.93;;;;;;;6.13;100.00;152936.88;5051836;28;20853;-74
2021/05/01 04:54:09;;;;;;;35.53;26.40;;;;;;;6.17;100.00;152945.88;5026551;28;20556;-74
2021/05/01 04:56:44;;;;;;;36.60;24.00;;;;;;;6.23;100.00;152960.06;5019125;28;20934;-74
2021/05/01 04:59:19;;;;;;;35.63;25.13;;;;;;;6.13;100.00;152936.88;5031041;28;20444;-74
2021/05/01 05:01:55;;;;;;;34.17;23.97;;;;;;;6.19;100.00;152949.78;5036646;28;20493;-75
2021/05/01 05:04:30;;;;;;;37.37;25.67;;;;;;;6.16;100.00;152942.03;5034155;28;20538;-76
2021/05/01 05:07:05;;;;;;;39.63;29.37;;;;;;;6.18;100.00;152947.19;5051118;28;20440;-73
2021/05/01 05:09:40;;;;;;;37.73;26.07;;;;;;;6.18;100.00;152947.19;5051937;28;20468;-76
2021/05/01 05:12:16;;;;;;;42.00;27.23;;;;;;;6.12;100.00;152932.97;5040693;28;20455;-76
2021/05/01 05:14:50;;;;;;;36.83;25.93;;;;;;;6.06;100.00;152918.78;5034061;28;20447;-76
2021/05/01 05:17:27;;;;;;;44.93;29.80;;;;;;;6.12;100.00;152934.28;5036236;28;20816;-76
2021/05/01 05:20:03;;;;;;;34.73;25.97;;;;;;;6.20;100.00;152952.31;5036926;28;20845;-76
2021/05/01 05:22:38;;;;;;;41.77;27.00;;;;;;;6.23;100.00;152960.06;5037011;28;20530;-76
2021/05/01 05:25:13;;;;;;;39.33;27.30;;;;;;;6.25;100.00;152966.53;5038437;28;20428;-74
2021/05/01 05:27:48;;;;;;;40.37;27.30;;;;;;;6.30;100.00;152978.16;5021607;28;20792;-77
2021/05/01 05:30:23;;;;;;;38.43;27.17;;;;;;;6.17;100.00;152944.63;5022290;28;20852;-76
2021/05/01 05:33:00;;;;;;;41.10;26.77;;;;;;;6.17;100.00;152944.63;5036015;28;20542;-76
2021/05/01 05:35:35;;;;;;;42.50;26.83;;;;;;;6.20;100.00;152953.63;5036506;28;20452;-77
2021/05/01 05:38:10;;;;;;;36.37;25.40;;;;;;;6.19;100.00;152949.78;5053723;28;20538;-77
2021/05/01 05:40:45;;;;;;;38.30;28.40;;;;;;;6.24;100.00;152962.66;5036502;28;20431;-76
2021/05/01 05:43:20;;;;;;;36.43;25.87;;;;;;;6.25;100.00;152965.28;5054332;28;20441;-76
2021/05/01 05:45:55;;;;;;;44.13;30.43;;;;;;;6.28;100.00;152974.28;5032323;28;20447;-76
2021/05/01 05:48:32;;;;;;;43.90;30.00;;;;;;;6.34;100.00;152988.47;5052182;28;20830;-76
2021/05/01 05:51:07;;;;;;;50.67;31.97;;;;;;;6.31;100.00;152980.72;5052942;28;20441;-76
2021/05/01 05:53:42;;;;;;;47.77;32.00;;;;;;;6.29;100.00;152976.88;5001787;28;20481;-77
2021/05/01 05:56:19;;;;;;;48.30;31.70;;;;;;;6.29;100.00;152975.56;5029220;28;20441;-76
2021/05/01 05:58:54;;;;;;;47.30;30.30;;;;;;;6.27;100.00;152970.41;5030183;28;20445;-76
2021/05/01 06:01:31;;;;;;;47.23;31.43;;;;;;;6.32;100.00;152984.63;5032631;28;20443;-77
2021/05/01 06:04:09;;;;;;;45.50;29.00;;;;;;;6.42;100.00;153009.13;5052709;28;20476;-76
2021/05/01 06:06:49;;;;;;;42.23;29.17;;;;;;;6.40;100.00;153005.28;5050083;28;20914;-77
2021/05/01 06:09:25;;;;;;;39.73;26.93;;;;;;;6.31;100.00;152982.03;5032031;28;20903;-76
2021/05/01 06:12:01;;;;;;;34.43;23.37;;;;;;;6.36;100.00;152994.91;5018169;28;20461;-76
2021/05/01 06:14:36;;;;;;;34.23;24.87;;;;;;;6.51;100.00;153033.63;5050351;28;20461;-76
2021/05/01 06:17:12;;;;;;;29.60;21.90;;;;;;;6.50;100.00;153029.75;5034272;28;20901;-76
2021/05/01 06:19:49;;;;;;;32.10;23.87;;;;;;;6.53;100.00;153037.50;5050346;28;20858;-76
2021/05/01 06:22:25;;;;;;;33.83;23.50;;;;;;;6.51;100.00;153032.38;5036593;28;20441;-76
2021/05/01 06:25:01;;;;;;;35.30;24.07;;;;;;;6.46;100.00;153019.47;5026480;28;20435;-76
2021/05/01 06:27:36;;;;;;;32.23;21.87;;;;;;;6.46;100.00;153020.72;5018757;28;20862;-76
2021/05/01 06:30:14;;;;;;;32.00;23.17;;;;;;;6.50;100.00;153029.75;4999416;28;716587;-76
2021/05/01 06:32:51;;;;;;;34.20;24.70;;;;;;;6.51;100.00;153032.38;5020385;28;20452;-76
2021/05/01 06:35:27;;;;;;;31.60;23.00;;;;;;;6.51;100.00;153033.63;5034889;28;20452;-76
2021/05/01 06:38:02;;;;;;;32.17;22.60;;;;;;;6.58;100.00;153050.41;5029725;28;20542;-76
2021/05/01 06:40:40;;;;;;;34.67;24.50;;;;;;;6.55;100.00;153042.66;5054157;28;20803;-76
2021/05/01 06:43:21;;;;;;;31.53;22.57;;;;;;;6.49;100.00;153027.16;5034923;28;20468;-76
2021/05/01 06:45:56;;;;;;;36.00;24.57;;;;;;;6.51;100.00;153032.38;5034020;28;20542;-76
2021/05/01 06:48:33;;;;;;;31.73;23.30;;;;;;;6.51;100.00;153033.63;5052483;28;20558;-76
2021/05/01 06:51:09;;;;;;;35.60;24.87;;;;;;;6.52;100.00;153036.22;5033089;28;20457;-76
2021/05/01 06:53:44;;;;;;;33.00;23.90;;;;;;;6.67;100.00;153073.66;5037308;28;20451;-76
2021/05/01 06:56:19;;;;;;;35.17;24.63;;;;;;;6.74;100.00;153093.03;5027329;28;20488;-76
2021/05/01 06:58:59;;;;;;;35.10;25.53;;;;;;;6.66;100.00;153072.38;5028755;28;20550;-76
2021/05/01 07:01:34;;;;;;;34.47;25.40;;;;;;;6.69;100.00;153078.81;5034567;28;20452;-76
2021/05/01 07:04:12;;;;;;;31.40;20.90;;;;;;;6.65;100.00;153068.47;5051321;28;20923;-76
2021/05/01 07:06:49;;;;;;;32.80;23.70;;;;;;;6.76;100.00;153096.88;5026929;28;20442;-76
2021/05/01 07:09:24;;;;;;;31.93;24.00;;;;;;;6.69;100.00;153078.81;5028013;28;20477;-76
2021/05/01 07:12:00;;;;;;;34.73;24.07;;;;;;;6.78;100.00;153100.78;5027466;28;20905;-76
2021/05/01 07:14:36;;;;;;;36.27;25.00;;;;;;;6.82;100.00;153111.06;5033447;28;20890;-76
2021/05/01 07:17:12;;;;;;;34.73;23.57;;;;;;;6.85;100.00;153120.13;5034998;28;20437;-76
2021/05/01 07:19:47;;;;;;;30.33;23.73;;;;;;;6.78;100.00;153102.03;5028440;28;20449;-75
2021/05/01 07:22:23;;;;;;;33.83;23.23;;;;;;;6.71;100.00;153085.28;5019274;28;20452;-76
2021/05/01 07:24:59;;;;;;;28.90;22.80;;;;;;;6.71;100.00;153083.97;5052879;28;20446;-76
2021/05/01 07:27:36;;;;;;;36.30;23.13;;;;;;;6.75;100.00;153094.31;5029006;28;20456;-76
2021/05/01 07:30:13;;;;;;;38.13;24.43;;;;;;;6.78;100.00;153102.03;5047188;28;20468;-76
2021/05/01 07:32:50;;;;;;;34.93;24.77;;;;;;;6.78;100.00;153102.03;5048842;28;20455;-76
2021/05/01 07:35:25;;;;;;;33.17;23.70;;;;;;;6.75;100.00;153094.31;5052576;28;20447;-76
2021/05/01 07:38:06;;;;;;;34.87;24.50;;;;;;;6.71;100.00;153083.97;5020031;28;20871;-76
2021/05/01 07:40:43;;;;;;;40.73;27.30;;;;;;;6.72;100.00;153086.56;5034232;28;20526;-76
2021/05/01 07:43:21;;;;;;;35.30;27.30;;;;;;;6.68;100.00;153077.50;5033063;28;20855;-76
2021/05/01 07:45:57;;;;;;;38.40;26.20;;;;;;;6.72;100.00;153086.56;5034674;28;20456;-76
2021/05/01 07:48:34;;;;;;;35.73;25.97;;;;;;;6.75;100.00;153094.31;5016669;28;20473;-76
2021/05/01 07:51:09;;;;;;;38.80;26.10;;;;;;;6.81;100.00;153109.78;5006089;28;20550;-76
2021/05/01 07:53:45;;;;;;;36.73;25.03;;;;;;;6.74;100.00;153091.72;5031824;28;20531;-76
2021/05/01 07:56:20;;;;;;;36.27;25.67;;;;;;;6.69;100.00;153078.81;5050924;28;20439;-76
2021/05/01 07:58:58;;;;;;;34.40;23.37;;;;;;;6.74;100.00;153093.03;5051800;28;20452;-75
2021/05/01 08:01:33;;;;;;;33.73;24.97;;;;;;;6.88;100.00;153127.88;5046746;28;20781;-74
2021/05/01 08:04:10;;;;;;;35.00;24.77;;;;;;;6.84;100.00;153117.53;5029845;28;20980;-75
2021/05/01 08:06:45;;;;;;;37.80;25.83;;;;;;;6.76;100.00;153096.88;5026799;28;20472;-76
2021/05/01 08:09:21;;;;;;;36.27;25.80;;;;;;;6.82;100.00;153112.38;5051949;28;20567;-76
2021/05/01 08:11:56;;;;;;;36.63;26.73;;;;;;;6.84;100.00;153116.22;5028721;28;20816;-75
2021/05/01 08:14:31;;;;;;;32.77;23.23;;;;;;;6.87;100.00;153125.28;5029698;28;20542;-76
2021/05/01 08:17:06;;;;;;;33.10;22.60;;;;;;;6.91;100.00;153135.59;5051301;28;20454;-76
2021/05/01 08:19:41;;;;;;;38.30;27.20;;;;;;;6.97;100.00;153149.78;5040544;28;20443;-76
2021/05/01 08:22:16;;;;;;;41.80;30.37;;;;;;;7.00;100.00;153158.84;5028947;28;20457;-76
2021/05/01 08:24:53;;;;;;;35.37;27.07;;;;;;;7.05;100.00;153170.44;5014728;28;20916;-76
2021/05/01 08:27:28;;;;;;;31.90;23.30;;;;;;;7.02;100.00;153164.00;5030993;28;20437;-76
2021/05/01 08:30:06;;;;;;;34.13;24.17;;;;;;;7.16;100.00;153198.84;5027240;28;20471;-76
2021/05/01 08:32:40;;;;;;;30.97;24.40;;;;;;;7.12;100.00;153188.56;5032914;28;20483;-76
2021/05/01 08:35:16;;;;;;;32.97;23.97;;;;;;;7.11;100.00;153187.25;5019602;28;20460;-76
2021/05/01 08:37:51;;;;;;;33.47;24.00;;;;;;;6.98;100.00;153153.69;5050933;28;20852;-75
2021/05/01 08:40:27;;;;;;;32.97;23.23;;;;;;;7.10;100.00;153184.66;5033690;28;20480;-75
2021/05/01 08:43:02;;;;;;;28.97;23.87;;;;;;;7.17;100.00;153202.75;5033533;28;20461;-76
2021/05/01 08:45:38;;;;;;;28.30;22.87;;;;;;;7.11;100.00;153187.25;5033711;28;20479;-76
2021/05/01 08:48:13;;;;;;;29.83;22.03;;;;;;;7.08;100.00;153179.50;5051151;28;20908;-75
2021/05/01 08:50:51;;;;;;;27.10;20.70;;;;;;;7.22;100.00;153214.38;5033284;28;20690;-75
2021/05/01 08:53:26;;;;;;;32.30;22.23;;;;;;;7.32;100.00;153241.47;5037198;28;20545;-76
2021/05/01 08:56:02;;;;;;;29.93;22.20;;;;;;;7.46;100.00;153275.06;5038134;28;20533;-75
2021/05/01 08:58:38;;;;;;;29.00;21.90;;;;;;;7.49;100.00;153284.13;5052308;28;20460;-75
2021/05/01 09:01:13;;;;;;;28.50;20.80;;;;;;;7.43;100.00;153268.59;5052846;28;20536;-75
2021/05/01 09:03:50;;;;;;;27.87;19.97;;;;;;;7.51;100.00;153287.97;5054435;28;20456;-75
2021/05/01 09:06:25;;;;;;;31.27;22.47;;;;;;;7.59;100.00;153308.63;5051679;28;20784;-76
2021/05/01 09:09:03;;;;;;;27.83;22.57;;;;;;;7.66;100.00;153326.72;5054862;28;20523;-76
2021/05/01 09:11:41;;;;;;;27.70;20.60;;;;;;;7.73;100.00;153346.06;5038298;28;20865;-76
2021/05/01 09:14:18;;;;;;;29.67;22.67;;;;;;;7.82;100.00;153368.03;5035940;28;20453;-76
2021/05/01 09:16:58;;;;;;;28.00;21.37;;;;;;;7.77;100.00;153355.13;5038313;28;20464;-76
2021/05/01 09:19:35;;;;;;;28.77;22.53;;;;;;;7.79;100.00;153360.28;5017958;28;20442;-76
2021/05/01 09:22:12;;;;;;;29.83;22.30;;;;;;;7.73;100.00;153346.06;5034163;28;20465;-76
2021/05/01 09:24:47;;;;;;;29.30;21.70;;;;;;;7.97;100.00;153408.09;5036234;28;20478;-76
2021/05/01 09:27:23;;;;;;;33.73;23.47;;;;;;;8.08;100.00;153435.22;5036932;28;20453;-76
2021/05/01 09:30:12;;;;;;;26.83;20.60;;;;;;;8.07;97.79;153431.38;5048597;28;20469;-73
2021/05/01 09:32:47;;;;;;;25.80;20.00;;;;;;;7.99;98.17;153412.00;5031334;28;20959;-76
2021/05/01 09:35:23;;;;;;;24.43;19.30;;;;;;;7.92;95.72;153393.88;5032905;28;20535;-76
2021/05/01 09:37:58;;;;;;;27.80;19.90;;;;;;;7.95;97.21;153401.63;5051739;28;20548;-76
2021/05/01 09:40:34;;;;;;;27.33;20.67;;;;;;;8.06;96.48;153430.06;5033393;28;20457;-75
2021/05/01 09:43:10;;;;;;;24.97;18.70;;;;;;;8.10;96.55;153439.13;5027950;28;20470;-75
2021/05/01 09:45:45;;;;;;;31.50;18.97;;;;;;;8.09;96.89;153437.81;5038100;28;20466;-76
2021/05/01 09:48:20;;;;;;;28.50;20.50;;;;;;;8.19;97.22;153463.66;5041163;28;20489;-76
2021/05/01 09:51:03;;;;;;;26.00;19.70;;;;;;;8.29;95.46;153489.56;5047234;28;20445;-76
2021/05/01 09:53:39;;;;;;;26.30;20.30;;;;;;;8.23;95.44;153474.03;5046584;28;20455;-76
2021/05/01 09:56:18;;;;;;;23.53;18.70;;;;;;;8.26;95.03;153480.50;5028087;28;20799;-75
2021/05/01 09:58:54;;;;;;;29.20;22.23;;;;;;;8.25;94.00;153479.19;5021655;28;20445;-75
2021/05/01 10:01:29;;;;;;;25.33;19.00;;;;;;;8.28;93.11;153485.69;5028767;28;20446;-75
2021/05/01 10:04:12;;;;;;;26.67;20.97;;;;;;;8.38;93.45;153512.84;5027800;28;20469;-75
2021/05/01 10:06:50;;;;;;;26.70;19.40;;;;;;;8.39;94.13;153515.38;5045969;28;20450;-74
2021/05/01 10:09:27;;;;;;;28.60;20.70;;;;;;;8.40;92.66;153518.00;5027513;28;20565;-75
2021/05/01 10:12:06;;;;;;;26.20;19.93;;;;;;;8.48;92.32;153538.69;5027934;28;20431;-75
2021/05/01 10:14:43;;;;;;;25.07;18.80;;;;;;;8.67;94.42;153585.22;5030287;28;20553;-75
2021/05/01 10:17:28;;;;;;;26.13;19.80;;;;;;;8.72;93.14;153598.13;5017139;28;20450;-75
2021/05/01 10:20:05;;;;;;;24.13;19.87;;;;;;;8.68;90.57;153587.81;5029032;28;20440;-75
2021/05/01 10:22:42;;;;;;;24.63;19.73;;;;;;;8.49;90.18;153541.28;5028795;28;20883;-75
2021/05/01 10:25:21;;;;;;;25.57;19.63;;;;;;;8.62;92.56;153573.59;5046111;28;20475;-74
2021/05/01 10:27:59;;;;;;;33.10;23.67;;;;;;;8.60;89.92;153568.44;5028210;28;20459;-75
2021/05/01 10:30:38;;;;;;;25.13;18.73;;;;;;;8.68;90.82;153587.81;5036190;28;20785;-75
2021/05/01 10:33:26;;;;;;;25.10;20.17;;;;;;;8.68;89.85;153587.81;5018659;28;20952;-75
2021/05/01 10:36:11;;;;;;;24.63;19.87;;;;;;;8.73;90.06;153600.72;5015545;28;20449;-75
2021/05/01 10:38:57;;;;;;;28.97;21.00;;;;;;;8.88;90.66;153640.81;5054413;28;20435;-75
2021/05/01 10:41:32;;;;;;;26.83;20.87;;;;;;;8.88;89.90;153640.81;5034886;28;20500;-75
2021/05/01 10:44:08;;;;;;;28.50;21.60;;;;;;;8.94;88.37;153655.03;5035673;28;20455;-75
2021/05/01 10:46:44;;;;;;;27.10;21.20;;;;;;;8.83;88.56;153627.88;5052171;28;20439;-75
2021/05/01 10:49:19;;;;;;;26.20;20.27;;;;;;;8.88;88.45;153639.50;5035347;28;20975;-75
2021/05/01 10:51:55;;;;;;;23.03;19.90;;;;;;;8.90;87.67;153645.97;5038962;28;20557;-75
2021/05/01 10:54:31;;;;;;;26.37;21.03;;;;;;;8.92;86.27;153649.88;5037606;28;20545;-75
2021/05/01 10:57:13;;;;;;;26.47;19.57;;;;;;;9.11;86.83;153698.97;5033946;28;20455;-75
2021/05/01 10:59:57;;;;;;;27.20;21.60;;;;;;;9.19;86.92;153719.69;5033862;28;20454;-75
2021/05/01 11:02:35;;;;;;;28.83;22.20;;;;;;;9.13;87.33;153705.44;5032269;28;20460;-75
2021/05/01 11:05:17;;;;;;;30.00;21.83;;;;;;;9.20;87.04;153722.28;5031404;28;21165;-74
2021/05/01 11:08:03;;;;;;;27.30;21.00;;;;;;;9.13;86.11;153705.44;5029467;28;20499;-74
2021/05/01 11:10:38;;;;;;;28.33;21.17;;;;;;;9.01;85.46;153673.13;5043998;28;20482;-74
2021/05/01 11:13:15;;;;;;;28.57;21.07;;;;;;;9.06;86.09;153686.06;5033073;28;20515;-74
2021/05/01 11:15:51;;;;;;;28.70;21.33;;;;;;;8.91;87.38;153647.28;5051122;28;20793;-74
2021/05/01 11:18:28;;;;;;;24.80;21.03;;;;;;;9.03;87.66;153678.28;5018959;28;20475;-74
2021/05/01 11:21:06;;;;;;;26.70;21.27;;;;;;;8.97;86.97;153662.81;5027749;28;20431;-74
2021/05/01 11:23:41;;;;;;;31.17;23.20;;;;;;;8.98;88.73;153665.34;5013404;28;20550;-75
2021/05/01 11:26:17;;;;;;;28.27;22.27;;;;;;;9.04;88.21;153680.88;5033744;28;20463;-75
2021/05/01 11:28:53;;;;;;;26.83;20.23;;;;;;;8.93;87.65;153652.44;5034272;28;20463;-75
2021/05/01 11:31:29;;;;;;;28.20;21.80;;;;;;;8.84;89.22;153630.44;5052531;28;20505;-75
2021/05/01 11:34:06;;;;;;;30.20;21.10;;;;;;;8.99;89.54;153669.25;5030847;28;20459;-75
2021/05/01 11:36:45;;;;;;;29.57;23.07;;;;;;;8.93;87.93;153652.44;5029553;28;20516;-76
2021/05/01 11:39:20;;;;;;;32.47;21.67;;;;;;;9.07;88.85;153689.97;5052243;28;20426;-76
2021/05/01 11:41:56;;;;;;;31.93;24.63;;;;;;;8.95;88.55;153658.91;5052278;28;20438;-75
2021/05/01 11:44:32;;;;;;;28.40;22.10;;;;;;;9.02;90.46;153675.72;5052292;28;20455;-75
2021/05/01 11:47:10;;;;;;;29.70;23.20;;;;;;;9.05;88.17;153684.75;5035331;28;20454;-75
2021/05/01 11:49:47;;;;;;;28.07;22.97;;;;;;;9.06;89.62;153686.06;5034239;28;20479;-76
2021/05/01 11:52:50;;;;;;;29.70;23.90;;;;;;;8.96;91.32;153660.19;5022270;28;20440;-76